sensor_id;sensor_type;location;lat;lon;timestamp;P1;durP1;ratioP1;P2;durP2;ratioP2
17618;SDS011;8928;51.678;6.074;2023-11-18T00:02:04;117.53;;;29.90;;
17618;SDS011;8928;51.678;6.074;2023-11-18T00:04:51;116.30;;;29.80;;
17618;SDS011;8928;51.678;6.074;2023-11-18T00:07:38;138.13;;;31.40;;
17618;SDS011;8928;51.678;6.074;2023-11-18T00:10:25;126.30;;;31.03;;
17618;SDS011;8928;51.678;6.074;2023-11-18T00:13:13;115.40;;;30.13;;
17618;SDS011;8928;51.678;6.074;2023-11-18T00:16:02;124.00;;;30.37;;
17618;SDS011;8928;51.678;6.074;2023-11-18T00:18:49;123.37;;;31.57;;
17618;SDS011;8928;51.678;6.074;2023-11-18T00:21:38;117.67;;;30.03;;
17618;SDS011;8928;51.678;6.074;2023-11-18T00:24:26;135.80;;;31.33;;
17618;SDS011;8928;51.678;6.074;2023-11-18T00:27:13;125.60;;;31.83;;
17618;SDS011;8928;51.678;6.074;2023-11-18T00:30:00;126.90;;;30.43;;
17618;SDS011;8928;51.678;6.074;2023-11-18T00:32:51;112.90;;;29.63;;
17618;SDS011;8928;51.678;6.074;2023-11-18T00:35:38;128.00;;;31.03;;
17618;SDS011;8928;51.678;6.074;2023-11-18T00:38:25;120.87;;;29.33;;
17618;SDS011;8928;51.678;6.074;2023-11-18T00:41:12;113.20;;;29.80;;
17618;SDS011;8928;51.678;6.074;2023-11-18T00:44:00;126.87;;;30.20;;
17618;SDS011;8928;51.678;6.074;2023-11-18T00:46:47;118.80;;;30.07;;
17618;SDS011;8928;51.678;6.074;2023-11-18T00:49:35;118.60;;;30.33;;
17618;SDS011;8928;51.678;6.074;2023-11-18T00:52:22;110.00;;;29.00;;
17618;SDS011;8928;51.678;6.074;2023-11-18T00:55:09;120.20;;;30.10;;
17618;SDS011;8928;51.678;6.074;2023-11-18T00:57:57;113.67;;;29.53;;
17618;SDS011;8928;51.678;6.074;2023-11-18T01:00:44;116.27;;;29.77;;
17618;SDS011;8928;51.678;6.074;2023-11-18T01:03:31;117.77;;;29.50;;
17618;SDS011;8928;51.678;6.074;2023-11-18T01:06:20;114.80;;;28.87;;
17618;SDS011;8928;51.678;6.074;2023-11-18T01:09:08;119.13;;;29.20;;
17618;SDS011;8928;51.678;6.074;2023-11-18T01:11:55;118.03;;;28.77;;
17618;SDS011;8928;51.678;6.074;2023-11-18T01:14:42;117.03;;;28.83;;
17618;SDS011;8928;51.678;6.074;2023-11-18T01:17:29;125.23;;;29.50;;
17618;SDS011;8928;51.678;6.074;2023-11-18T01:20:17;105.63;;;28.83;;
17618;SDS011;8928;51.678;6.074;2023-11-18T01:23:08;115.00;;;28.77;;
17618;SDS011;8928;51.678;6.074;2023-11-18T01:25:55;101.10;;;27.53;;
17618;SDS011;8928;51.678;6.074;2023-11-18T01:28:42;111.57;;;28.17;;
17618;SDS011;8928;51.678;6.074;2023-11-18T01:31:30;111.97;;;27.80;;
17618;SDS011;8928;51.678;6.074;2023-11-18T01:34:18;106.63;;;29.23;;
17618;SDS011;8928;51.678;6.074;2023-11-18T01:37:06;105.80;;;28.83;;
17618;SDS011;8928;51.678;6.074;2023-11-18T01:39:56;107.47;;;29.50;;
17618;SDS011;8928;51.678;6.074;2023-11-18T01:42:43;105.77;;;28.47;;
17618;SDS011;8928;51.678;6.074;2023-11-18T01:45:31;104.47;;;28.87;;
17618;SDS011;8928;51.678;6.074;2023-11-18T01:48:18;109.43;;;28.53;;
17618;SDS011;8928;51.678;6.074;2023-11-18T01:51:07;135.80;;;29.77;;
17618;SDS011;8928;51.678;6.074;2023-11-18T01:53:57;133.20;;;30.70;;
17618;SDS011;8928;51.678;6.074;2023-11-18T01:56:48;118.70;;;29.77;;
17618;SDS011;8928;51.678;6.074;2023-11-18T01:59:35;116.33;;;30.17;;
17618;SDS011;8928;51.678;6.074;2023-11-18T02:02:25;121.03;;;30.53;;
17618;SDS011;8928;51.678;6.074;2023-11-18T02:05:12;115.50;;;30.30;;
17618;SDS011;8928;51.678;6.074;2023-11-18T02:08:01;114.90;;;30.37;;
17618;SDS011;8928;51.678;6.074;2023-11-18T02:10:54;103.83;;;29.60;;
17618;SDS011;8928;51.678;6.074;2023-11-18T02:13:48;109.27;;;28.77;;
17618;SDS011;8928;51.678;6.074;2023-11-18T02:16:40;101.87;;;29.13;;
17618;SDS011;8928;51.678;6.074;2023-11-18T02:19:27;139.70;;;30.67;;
17618;SDS011;8928;51.678;6.074;2023-11-18T02:22:17;98.93;;;28.70;;
17618;SDS011;8928;51.678;6.074;2023-11-18T02:25:05;111.73;;;30.00;;
17618;SDS011;8928;51.678;6.074;2023-11-18T02:27:57;118.07;;;31.13;;
17618;SDS011;8928;51.678;6.074;2023-11-18T02:30:44;123.20;;;32.17;;
17618;SDS011;8928;51.678;6.074;2023-11-18T02:33:35;115.33;;;31.20;;
17618;SDS011;8928;51.678;6.074;2023-11-18T02:36:29;120.83;;;32.03;;
17618;SDS011;8928;51.678;6.074;2023-11-18T02:39:21;125.10;;;32.27;;
17618;SDS011;8928;51.678;6.074;2023-11-18T02:42:14;134.80;;;31.47;;
17618;SDS011;8928;51.678;6.074;2023-11-18T02:45:03;121.03;;;31.50;;
17618;SDS011;8928;51.678;6.074;2023-11-18T02:47:53;123.57;;;33.20;;
17618;SDS011;8928;51.678;6.074;2023-11-18T02:50:42;117.50;;;32.17;;
17618;SDS011;8928;51.678;6.074;2023-11-18T02:53:29;124.03;;;31.60;;
17618;SDS011;8928;51.678;6.074;2023-11-18T02:56:16;119.83;;;31.90;;
17618;SDS011;8928;51.678;6.074;2023-11-18T02:59:04;130.20;;;32.30;;
17618;SDS011;8928;51.678;6.074;2023-11-18T03:01:54;139.53;;;33.67;;
17618;SDS011;8928;51.678;6.074;2023-11-18T03:04:41;131.20;;;33.60;;
17618;SDS011;8928;51.678;6.074;2023-11-18T03:07:31;108.43;;;30.93;;
17618;SDS011;8928;51.678;6.074;2023-11-18T03:10:18;130.60;;;33.43;;
17618;SDS011;8928;51.678;6.074;2023-11-18T03:13:07;120.20;;;33.20;;
17618;SDS011;8928;51.678;6.074;2023-11-18T03:15:54;137.37;;;33.27;;
17618;SDS011;8928;51.678;6.074;2023-11-18T03:18:42;127.47;;;33.97;;
17618;SDS011;8928;51.678;6.074;2023-11-18T03:21:30;144.63;;;33.80;;
17618;SDS011;8928;51.678;6.074;2023-11-18T03:24:17;121.10;;;32.73;;
17618;SDS011;8928;51.678;6.074;2023-11-18T03:27:04;130.00;;;31.60;;
17618;SDS011;8928;51.678;6.074;2023-11-18T03:29:54;122.53;;;33.13;;
17618;SDS011;8928;51.678;6.074;2023-11-18T03:32:41;144.37;;;34.63;;
17618;SDS011;8928;51.678;6.074;2023-11-18T03:35:29;124.93;;;32.60;;
17618;SDS011;8928;51.678;6.074;2023-11-18T03:38:16;136.10;;;32.23;;
17618;SDS011;8928;51.678;6.074;2023-11-18T03:41:03;132.90;;;32.97;;
17618;SDS011;8928;51.678;6.074;2023-11-18T03:43:50;131.13;;;32.87;;
17618;SDS011;8928;51.678;6.074;2023-11-18T03:46:38;135.03;;;32.43;;
17618;SDS011;8928;51.678;6.074;2023-11-18T03:49:26;133.43;;;31.53;;
17618;SDS011;8928;51.678;6.074;2023-11-18T03:52:14;134.70;;;32.17;;
17618;SDS011;8928;51.678;6.074;2023-11-18T03:55:02;135.87;;;33.40;;
17618;SDS011;8928;51.678;6.074;2023-11-18T03:57:49;128.10;;;32.90;;
17618;SDS011;8928;51.678;6.074;2023-11-18T04:00:36;125.73;;;31.83;;
17618;SDS011;8928;51.678;6.074;2023-11-18T04:03:23;129.97;;;32.60;;
17618;SDS011;8928;51.678;6.074;2023-11-18T04:06:11;134.43;;;33.40;;
17618;SDS011;8928;51.678;6.074;2023-11-18T04:09:00;138.80;;;34.37;;
17618;SDS011;8928;51.678;6.074;2023-11-18T04:11:48;143.30;;;34.00;;
17618;SDS011;8928;51.678;6.074;2023-11-18T04:14:35;131.83;;;33.13;;
17618;SDS011;8928;51.678;6.074;2023-11-18T04:17:22;126.47;;;33.93;;
17618;SDS011;8928;51.678;6.074;2023-11-18T04:20:13;128.17;;;34.47;;
17618;SDS011;8928;51.678;6.074;2023-11-18T04:23:01;136.70;;;34.53;;
17618;SDS011;8928;51.678;6.074;2023-11-18T04:25:49;128.17;;;34.17;;
17618;SDS011;8928;51.678;6.074;2023-11-18T04:28:37;134.80;;;33.73;;
17618;SDS011;8928;51.678;6.074;2023-11-18T04:31:24;135.97;;;32.83;;
17618;SDS011;8928;51.678;6.074;2023-11-18T04:34:11;122.43;;;32.73;;
17618;SDS011;8928;51.678;6.074;2023-11-18T04:36:58;132.77;;;33.00;;
17618;SDS011;8928;51.678;6.074;2023-11-18T04:39:45;122.77;;;31.83;;
17618;SDS011;8928;51.678;6.074;2023-11-18T04:42:34;132.33;;;33.47;;
17618;SDS011;8928;51.678;6.074;2023-11-18T04:45:22;128.17;;;32.50;;
17618;SDS011;8928;51.678;6.074;2023-11-18T04:48:09;131.17;;;34.17;;
17618;SDS011;8928;51.678;6.074;2023-11-18T04:50:58;121.40;;;33.17;;
17618;SDS011;8928;51.678;6.074;2023-11-18T04:53:45;137.80;;;33.77;;
17618;SDS011;8928;51.678;6.074;2023-11-18T04:56:32;136.83;;;33.13;;
17618;SDS011;8928;51.678;6.074;2023-11-18T04:59:21;128.43;;;31.87;;
17618;SDS011;8928;51.678;6.074;2023-11-18T05:02:08;128.77;;;33.37;;
17618;SDS011;8928;51.678;6.074;2023-11-18T05:04:55;121.17;;;33.83;;
17618;SDS011;8928;51.678;6.074;2023-11-18T05:07:43;129.73;;;34.40;;
17618;SDS011;8928;51.678;6.074;2023-11-18T05:10:30;121.93;;;32.03;;
17618;SDS011;8928;51.678;6.074;2023-11-18T05:13:17;125.10;;;33.30;;
17618;SDS011;8928;51.678;6.074;2023-11-18T05:16:06;133.37;;;33.30;;
17618;SDS011;8928;51.678;6.074;2023-11-18T05:18:55;122.87;;;32.53;;
17618;SDS011;8928;51.678;6.074;2023-11-18T05:21:43;108.90;;;31.10;;
17618;SDS011;8928;51.678;6.074;2023-11-18T05:24:34;126.20;;;32.90;;
17618;SDS011;8928;51.678;6.074;2023-11-18T05:27:21;141.03;;;33.10;;
17618;SDS011;8928;51.678;6.074;2023-11-18T05:30:09;110.70;;;31.63;;
17618;SDS011;8928;51.678;6.074;2023-11-18T05:32:58;116.23;;;31.93;;
17618;SDS011;8928;51.678;6.074;2023-11-18T05:35:45;112.63;;;32.57;;
17618;SDS011;8928;51.678;6.074;2023-11-18T05:38:34;120.53;;;32.43;;
17618;SDS011;8928;51.678;6.074;2023-11-18T05:41:21;106.43;;;30.70;;
17618;SDS011;8928;51.678;6.074;2023-11-18T05:44:13;115.07;;;31.27;;
17618;SDS011;8928;51.678;6.074;2023-11-18T05:47:02;97.20;;;29.10;;
17618;SDS011;8928;51.678;6.074;2023-11-18T05:49:51;111.07;;;31.07;;
17618;SDS011;8928;51.678;6.074;2023-11-18T05:52:38;101.13;;;30.77;;
17618;SDS011;8928;51.678;6.074;2023-11-18T05:55:25;101.83;;;30.63;;
17618;SDS011;8928;51.678;6.074;2023-11-18T05:58:12;103.80;;;30.43;;
17618;SDS011;8928;51.678;6.074;2023-11-18T06:00:59;102.03;;;28.87;;
17618;SDS011;8928;51.678;6.074;2023-11-18T06:03:46;99.97;;;30.13;;
17618;SDS011;8928;51.678;6.074;2023-11-18T06:06:34;101.30;;;29.43;;
17618;SDS011;8928;51.678;6.074;2023-11-18T06:09:22;104.47;;;29.67;;
17618;SDS011;8928;51.678;6.074;2023-11-18T06:12:11;92.97;;;29.13;;
17618;SDS011;8928;51.678;6.074;2023-11-18T06:14:58;98.90;;;28.27;;
17618;SDS011;8928;51.678;6.074;2023-11-18T06:17:45;91.17;;;27.97;;
17618;SDS011;8928;51.678;6.074;2023-11-18T06:20:33;91.17;;;27.50;;
17618;SDS011;8928;51.678;6.074;2023-11-18T06:23:22;99.43;;;27.70;;
17618;SDS011;8928;51.678;6.074;2023-11-18T06:26:11;93.40;;;27.77;;
17618;SDS011;8928;51.678;6.074;2023-11-18T06:28:58;98.73;;;27.97;;
17618;SDS011;8928;51.678;6.074;2023-11-18T06:31:45;92.47;;;26.60;;
17618;SDS011;8928;51.678;6.074;2023-11-18T06:34:32;95.63;;;26.80;;
17618;SDS011;8928;51.678;6.074;2023-11-18T06:37:19;99.37;;;27.47;;
17618;SDS011;8928;51.678;6.074;2023-11-18T06:40:08;88.97;;;27.23;;
17618;SDS011;8928;51.678;6.074;2023-11-18T06:43:03;101.33;;;26.67;;
17618;SDS011;8928;51.678;6.074;2023-11-18T06:45:56;105.57;;;26.17;;
17618;SDS011;8928;51.678;6.074;2023-11-18T06:48:43;106.57;;;26.83;;
17618;SDS011;8928;51.678;6.074;2023-11-18T06:51:30;100.60;;;27.00;;
17618;SDS011;8928;51.678;6.074;2023-11-18T06:54:20;101.27;;;27.13;;
17618;SDS011;8928;51.678;6.074;2023-11-18T06:57:08;96.77;;;25.90;;
17618;SDS011;8928;51.678;6.074;2023-11-18T06:59:56;103.27;;;26.97;;
17618;SDS011;8928;51.678;6.074;2023-11-18T07:02:43;94.57;;;25.93;;
17618;SDS011;8928;51.678;6.074;2023-11-18T07:05:32;101.10;;;26.20;;
17618;SDS011;8928;51.678;6.074;2023-11-18T07:08:19;112.33;;;26.83;;
17618;SDS011;8928;51.678;6.074;2023-11-18T07:11:06;102.87;;;26.93;;
17618;SDS011;8928;51.678;6.074;2023-11-18T07:13:55;114.37;;;27.70;;
17618;SDS011;8928;51.678;6.074;2023-11-18T07:16:42;110.80;;;26.37;;
17618;SDS011;8928;51.678;6.074;2023-11-18T07:19:29;108.17;;;27.17;;
17618;SDS011;8928;51.678;6.074;2023-11-18T07:22:18;117.10;;;27.37;;
17618;SDS011;8928;51.678;6.074;2023-11-18T07:25:06;121.30;;;27.30;;
17618;SDS011;8928;51.678;6.074;2023-11-18T07:27:54;114.07;;;27.70;;
17618;SDS011;8928;51.678;6.074;2023-11-18T07:30:43;129.70;;;27.63;;
17618;SDS011;8928;51.678;6.074;2023-11-18T07:33:32;126.33;;;28.20;;
17618;SDS011;8928;51.678;6.074;2023-11-18T07:36:19;122.07;;;28.30;;
17618;SDS011;8928;51.678;6.074;2023-11-18T07:39:07;115.57;;;27.57;;
17618;SDS011;8928;51.678;6.074;2023-11-18T07:42:01;134.97;;;28.73;;
17618;SDS011;8928;51.678;6.074;2023-11-18T07:44:50;127.50;;;28.83;;
17618;SDS011;8928;51.678;6.074;2023-11-18T07:47:39;128.03;;;27.47;;
17618;SDS011;8928;51.678;6.074;2023-11-18T07:50:26;118.23;;;25.80;;
17618;SDS011;8928;51.678;6.074;2023-11-18T07:53:13;126.33;;;27.23;;
17618;SDS011;8928;51.678;6.074;2023-11-18T07:56:01;124.30;;;26.30;;
17618;SDS011;8928;51.678;6.074;2023-11-18T07:58:48;128.73;;;27.10;;
17618;SDS011;8928;51.678;6.074;2023-11-18T08:01:36;111.57;;;26.97;;
17618;SDS011;8928;51.678;6.074;2023-11-18T08:04:31;112.93;;;26.87;;
17618;SDS011;8928;51.678;6.074;2023-11-18T08:07:18;120.63;;;26.90;;
17618;SDS011;8928;51.678;6.074;2023-11-18T08:10:05;113.43;;;26.37;;
17618;SDS011;8928;51.678;6.074;2023-11-18T08:12:58;115.67;;;27.30;;
17618;SDS011;8928;51.678;6.074;2023-11-18T08:15:45;121.17;;;27.53;;
17618;SDS011;8928;51.678;6.074;2023-11-18T08:18:32;120.57;;;28.17;;
17618;SDS011;8928;51.678;6.074;2023-11-18T08:21:21;116.53;;;27.37;;
17618;SDS011;8928;51.678;6.074;2023-11-18T08:24:08;118.80;;;26.97;;
17618;SDS011;8928;51.678;6.074;2023-11-18T08:26:55;109.40;;;25.43;;
17618;SDS011;8928;51.678;6.074;2023-11-18T08:29:42;124.40;;;27.50;;
17618;SDS011;8928;51.678;6.074;2023-11-18T08:32:31;106.40;;;25.80;;
17618;SDS011;8928;51.678;6.074;2023-11-18T08:35:18;123.33;;;26.13;;
17618;SDS011;8928;51.678;6.074;2023-11-18T08:38:08;112.20;;;25.77;;
17618;SDS011;8928;51.678;6.074;2023-11-18T08:40:57;110.40;;;26.10;;
17618;SDS011;8928;51.678;6.074;2023-11-18T08:43:45;106.63;;;25.77;;
17618;SDS011;8928;51.678;6.074;2023-11-18T08:46:34;103.57;;;25.90;;
17618;SDS011;8928;51.678;6.074;2023-11-18T08:49:22;105.30;;;25.53;;
17618;SDS011;8928;51.678;6.074;2023-11-18T08:52:09;105.83;;;25.17;;
17618;SDS011;8928;51.678;6.074;2023-11-18T08:54:59;104.17;;;25.40;;
17618;SDS011;8928;51.678;6.074;2023-11-18T08:58:05;98.43;;;24.73;;
17618;SDS011;8928;51.678;6.074;2023-11-18T09:01:01;89.63;;;23.97;;
17618;SDS011;8928;51.678;6.074;2023-11-18T09:03:58;91.03;;;23.30;;
17618;SDS011;8928;51.678;6.074;2023-11-18T09:06:47;80.03;;;22.13;;
17618;SDS011;8928;51.678;6.074;2023-11-18T09:09:34;91.03;;;22.53;;
17618;SDS011;8928;51.678;6.074;2023-11-18T09:12:22;83.33;;;23.13;;
17618;SDS011;8928;51.678;6.074;2023-11-18T09:15:09;84.80;;;22.83;;
17618;SDS011;8928;51.678;6.074;2023-11-18T09:18:03;80.87;;;23.20;;
17618;SDS011;8928;51.678;6.074;2023-11-18T09:20:55;79.70;;;22.13;;
17618;SDS011;8928;51.678;6.074;2023-11-18T09:23:44;78.47;;;22.97;;
17618;SDS011;8928;51.678;6.074;2023-11-18T09:26:33;80.80;;;21.87;;
17618;SDS011;8928;51.678;6.074;2023-11-18T09:29:22;73.83;;;21.00;;
17618;SDS011;8928;51.678;6.074;2023-11-18T09:32:09;73.30;;;20.40;;
17618;SDS011;8928;51.678;6.074;2023-11-18T09:34:59;71.63;;;20.17;;
17618;SDS011;8928;51.678;6.074;2023-11-18T09:37:54;69.63;;;19.93;;
17618;SDS011;8928;51.678;6.074;2023-11-18T09:40:41;70.30;;;20.00;;
17618;SDS011;8928;51.678;6.074;2023-11-18T09:43:31;59.37;;;19.17;;
17618;SDS011;8928;51.678;6.074;2023-11-18T09:46:29;61.30;;;17.90;;
17618;SDS011;8928;51.678;6.074;2023-11-18T09:49:25;58.10;;;18.00;;
17618;SDS011;8928;51.678;6.074;2023-11-18T09:52:19;57.53;;;17.70;;
17618;SDS011;8928;51.678;6.074;2023-11-18T09:55:11;49.50;;;16.63;;
17618;SDS011;8928;51.678;6.074;2023-11-18T09:58:05;49.20;;;15.73;;
17618;SDS011;8928;51.678;6.074;2023-11-18T10:00:58;51.87;;;15.43;;
17618;SDS011;8928;51.678;6.074;2023-11-18T10:03:49;50.83;;;15.67;;
17618;SDS011;8928;51.678;6.074;2023-11-18T10:06:37;50.47;;;15.43;;
17618;SDS011;8928;51.678;6.074;2023-11-18T10:09:25;48.03;;;15.40;;
17618;SDS011;8928;51.678;6.074;2023-11-18T10:12:14;43.47;;;15.53;;
17618;SDS011;8928;51.678;6.074;2023-11-18T10:15:09;47.30;;;15.77;;
17618;SDS011;8928;51.678;6.074;2023-11-18T10:17:59;45.77;;;15.67;;
17618;SDS011;8928;51.678;6.074;2023-11-18T10:20:53;44.43;;;15.30;;
17618;SDS011;8928;51.678;6.074;2023-11-18T10:23:42;47.63;;;14.80;;
17618;SDS011;8928;51.678;6.074;2023-11-18T10:26:53;46.93;;;15.67;;
17618;SDS011;8928;51.678;6.074;2023-11-18T10:29:41;39.67;;;15.10;;
17618;SDS011;8928;51.678;6.074;2023-11-18T10:32:28;43.40;;;14.80;;
17618;SDS011;8928;51.678;6.074;2023-11-18T10:35:20;44.90;;;15.90;;
17618;SDS011;8928;51.678;6.074;2023-11-18T10:38:09;42.90;;;14.73;;
17618;SDS011;8928;51.678;6.074;2023-11-18T10:40:58;44.60;;;15.10;;
17618;SDS011;8928;51.678;6.074;2023-11-18T10:43:46;42.47;;;15.53;;
17618;SDS011;8928;51.678;6.074;2023-11-18T10:46:34;41.97;;;15.50;;
17618;SDS011;8928;51.678;6.074;2023-11-18T10:49:21;42.30;;;15.47;;
17618;SDS011;8928;51.678;6.074;2023-11-18T10:52:08;41.67;;;15.20;;
17618;SDS011;8928;51.678;6.074;2023-11-18T10:54:57;41.43;;;14.87;;
17618;SDS011;8928;51.678;6.074;2023-11-18T10:57:44;38.77;;;14.57;;
17618;SDS011;8928;51.678;6.074;2023-11-18T11:00:45;42.30;;;14.67;;
17618;SDS011;8928;51.678;6.074;2023-11-18T11:03:34;41.47;;;13.97;;
17618;SDS011;8928;51.678;6.074;2023-11-18T11:06:22;37.23;;;13.40;;
17618;SDS011;8928;51.678;6.074;2023-11-18T11:09:10;43.87;;;13.93;;
17618;SDS011;8928;51.678;6.074;2023-11-18T11:12:04;37.40;;;13.23;;
17618;SDS011;8928;51.678;6.074;2023-11-18T11:15:01;36.57;;;13.03;;
17618;SDS011;8928;51.678;6.074;2023-11-18T11:18:02;36.43;;;13.47;;
17618;SDS011;8928;51.678;6.074;2023-11-18T11:20:57;30.30;;;12.37;;
17618;SDS011;8928;51.678;6.074;2023-11-18T11:23:50;37.80;;;13.10;;
17618;SDS011;8928;51.678;6.074;2023-11-18T11:26:41;36.40;;;12.83;;
17618;SDS011;8928;51.678;6.074;2023-11-18T11:29:40;35.07;;;12.00;;
17618;SDS011;8928;51.678;6.074;2023-11-18T11:32:39;36.47;;;12.33;;
17618;SDS011;8928;51.678;6.074;2023-11-18T11:35:33;32.40;;;11.90;;
17618;SDS011;8928;51.678;6.074;2023-11-18T11:38:28;40.43;;;12.20;;
17618;SDS011;8928;51.678;6.074;2023-11-18T11:41:15;32.00;;;11.50;;
17618;SDS011;8928;51.678;6.074;2023-11-18T11:44:12;32.60;;;11.03;;
17618;SDS011;8928;51.678;6.074;2023-11-18T11:47:01;29.20;;;10.40;;
17618;SDS011;8928;51.678;6.074;2023-11-18T11:49:50;30.70;;;11.30;;
17618;SDS011;8928;51.678;6.074;2023-11-18T11:52:44;33.17;;;10.37;;
17618;SDS011;8928;51.678;6.074;2023-11-18T11:55:41;29.27;;;10.33;;
17618;SDS011;8928;51.678;6.074;2023-11-18T11:58:33;31.37;;;10.67;;
17618;SDS011;8928;51.678;6.074;2023-11-18T12:01:24;33.20;;;10.43;;
17618;SDS011;8928;51.678;6.074;2023-11-18T12:04:19;30.97;;;10.87;;
17618;SDS011;8928;51.678;6.074;2023-11-18T12:07:14;28.57;;;9.47;;
17618;SDS011;8928;51.678;6.074;2023-11-18T12:10:01;25.17;;;9.47;;
17618;SDS011;8928;51.678;6.074;2023-11-18T12:12:52;24.23;;;9.77;;
17618;SDS011;8928;51.678;6.074;2023-11-18T12:15:54;37.23;;;10.23;;
17618;SDS011;8928;51.678;6.074;2023-11-18T12:18:43;29.57;;;10.30;;
17618;SDS011;8928;51.678;6.074;2023-11-18T12:22:09;32.93;;;10.80;;
17618;SDS011;8928;51.678;6.074;2023-11-18T12:28:18;26.20;;;10.53;;
17618;SDS011;8928;51.678;6.074;2023-11-18T12:31:11;23.67;;;9.67;;
17618;SDS011;8928;51.678;6.074;2023-11-18T12:34:22;30.33;;;10.67;;
17618;SDS011;8928;51.678;6.074;2023-11-18T12:37:22;25.83;;;9.97;;
17618;SDS011;8928;51.678;6.074;2023-11-18T12:40:45;25.20;;;10.43;;
17618;SDS011;8928;51.678;6.074;2023-11-18T12:43:44;21.33;;;9.13;;
17618;SDS011;8928;51.678;6.074;2023-11-18T12:46:50;23.00;;;9.50;;
17618;SDS011;8928;51.678;6.074;2023-11-18T12:49:38;25.83;;;9.87;;
17618;SDS011;8928;51.678;6.074;2023-11-18T12:52:28;24.90;;;9.83;;
17618;SDS011;8928;51.678;6.074;2023-11-18T12:55:16;24.03;;;8.23;;
17618;SDS011;8928;51.678;6.074;2023-11-18T12:58:04;23.40;;;8.83;;
17618;SDS011;8928;51.678;6.074;2023-11-18T13:00:51;19.07;;;7.83;;
17618;SDS011;8928;51.678;6.074;2023-11-18T13:03:38;20.13;;;7.67;;
17618;SDS011;8928;51.678;6.074;2023-11-18T13:06:27;25.00;;;7.80;;
17618;SDS011;8928;51.678;6.074;2023-11-18T13:09:16;22.83;;;7.43;;
17618;SDS011;8928;51.678;6.074;2023-11-18T13:12:10;19.00;;;7.60;;
17618;SDS011;8928;51.678;6.074;2023-11-18T13:15:00;24.60;;;7.80;;
17618;SDS011;8928;51.678;6.074;2023-11-18T13:20:55;21.20;;;7.87;;
17618;SDS011;8928;51.678;6.074;2023-11-18T13:23:47;17.17;;;7.57;;
17618;SDS011;8928;51.678;6.074;2023-11-18T13:26:37;21.77;;;7.60;;
17618;SDS011;8928;51.678;6.074;2023-11-18T13:29:24;20.80;;;7.40;;
17618;SDS011;8928;51.678;6.074;2023-11-18T13:32:11;21.77;;;7.80;;
17618;SDS011;8928;51.678;6.074;2023-11-18T13:35:00;16.73;;;7.00;;
17618;SDS011;8928;51.678;6.074;2023-11-18T13:37:48;16.23;;;7.00;;
17618;SDS011;8928;51.678;6.074;2023-11-18T13:40:42;23.90;;;7.70;;
17618;SDS011;8928;51.678;6.074;2023-11-18T13:43:41;17.53;;;7.60;;
17618;SDS011;8928;51.678;6.074;2023-11-18T13:46:29;15.73;;;6.97;;
17618;SDS011;8928;51.678;6.074;2023-11-18T13:49:16;15.97;;;7.03;;
17618;SDS011;8928;51.678;6.074;2023-11-18T13:52:06;18.30;;;6.77;;
17618;SDS011;8928;51.678;6.074;2023-11-18T13:54:54;14.73;;;6.00;;
17618;SDS011;8928;51.678;6.074;2023-11-18T13:57:42;18.87;;;6.67;;
17618;SDS011;8928;51.678;6.074;2023-11-18T14:00:31;21.23;;;5.63;;
17618;SDS011;8928;51.678;6.074;2023-11-18T14:03:18;15.40;;;5.23;;
17618;SDS011;8928;51.678;6.074;2023-11-18T14:06:06;13.43;;;4.90;;
17618;SDS011;8928;51.678;6.074;2023-11-18T14:08:55;13.37;;;4.90;;
17618;SDS011;8928;51.678;6.074;2023-11-18T14:11:42;16.93;;;5.50;;
17618;SDS011;8928;51.678;6.074;2023-11-18T14:14:30;11.13;;;4.60;;
17618;SDS011;8928;51.678;6.074;2023-11-18T14:17:19;12.70;;;4.63;;
17618;SDS011;8928;51.678;6.074;2023-11-18T14:20:07;13.70;;;4.77;;
17618;SDS011;8928;51.678;6.074;2023-11-18T14:22:58;16.97;;;4.33;;
17618;SDS011;8928;51.678;6.074;2023-11-18T14:25:45;14.77;;;4.40;;
17618;SDS011;8928;51.678;6.074;2023-11-18T14:28:32;11.10;;;4.07;;
17618;SDS011;8928;51.678;6.074;2023-11-18T14:31:20;16.10;;;3.67;;
17618;SDS011;8928;51.678;6.074;2023-11-18T14:34:09;12.83;;;3.63;;
17618;SDS011;8928;51.678;6.074;2023-11-18T14:36:56;9.97;;;3.57;;
17618;SDS011;8928;51.678;6.074;2023-11-18T14:39:44;8.73;;;3.63;;
17618;SDS011;8928;51.678;6.074;2023-11-18T14:42:31;9.47;;;3.43;;
17618;SDS011;8928;51.678;6.074;2023-11-18T14:45:19;7.63;;;3.10;;
17618;SDS011;8928;51.678;6.074;2023-11-18T14:48:06;6.63;;;2.87;;
17618;SDS011;8928;51.678;6.074;2023-11-18T14:50:55;8.20;;;2.77;;
17618;SDS011;8928;51.678;6.074;2023-11-18T14:53:42;8.53;;;3.10;;
17618;SDS011;8928;51.678;6.074;2023-11-18T14:56:29;8.00;;;3.10;;
17618;SDS011;8928;51.678;6.074;2023-11-18T14:59:16;8.17;;;3.00;;
17618;SDS011;8928;51.678;6.074;2023-11-18T15:02:04;9.67;;;3.20;;
17618;SDS011;8928;51.678;6.074;2023-11-18T15:04:53;8.27;;;3.10;;
17618;SDS011;8928;51.678;6.074;2023-11-18T15:07:41;8.73;;;3.30;;
17618;SDS011;8928;51.678;6.074;2023-11-18T15:10:30;9.13;;;3.40;;
17618;SDS011;8928;51.678;6.074;2023-11-18T15:13:18;6.07;;;3.10;;
17618;SDS011;8928;51.678;6.074;2023-11-18T15:16:06;12.37;;;3.50;;
17618;SDS011;8928;51.678;6.074;2023-11-18T15:18:53;9.23;;;3.30;;
17618;SDS011;8928;51.678;6.074;2023-11-18T15:21:42;8.53;;;3.37;;
17618;SDS011;8928;51.678;6.074;2023-11-18T15:24:30;6.20;;;3.43;;
17618;SDS011;8928;51.678;6.074;2023-11-18T15:27:18;8.33;;;3.37;;
17618;SDS011;8928;51.678;6.074;2023-11-18T15:30:06;10.77;;;3.67;;
17618;SDS011;8928;51.678;6.074;2023-11-18T15:32:55;12.67;;;3.70;;
17618;SDS011;8928;51.678;6.074;2023-11-18T15:35:42;10.20;;;3.47;;
17618;SDS011;8928;51.678;6.074;2023-11-18T15:38:31;7.57;;;3.40;;
17618;SDS011;8928;51.678;6.074;2023-11-18T15:41:20;8.87;;;3.70;;
17618;SDS011;8928;51.678;6.074;2023-11-18T15:44:08;8.90;;;3.50;;
17618;SDS011;8928;51.678;6.074;2023-11-18T15:46:56;8.73;;;3.73;;
17618;SDS011;8928;51.678;6.074;2023-11-18T15:49:43;6.80;;;3.70;;
17618;SDS011;8928;51.678;6.074;2023-11-18T15:52:30;6.40;;;3.40;;
17618;SDS011;8928;51.678;6.074;2023-11-18T15:55:19;6.37;;;3.33;;
17618;SDS011;8928;51.678;6.074;2023-11-18T15:58:08;9.60;;;3.57;;
17618;SDS011;8928;51.678;6.074;2023-11-18T16:00:55;6.67;;;3.30;;
17618;SDS011;8928;51.678;6.074;2023-11-18T16:03:42;6.03;;;3.20;;
17618;SDS011;8928;51.678;6.074;2023-11-18T16:06:29;5.13;;;3.00;;
17618;SDS011;8928;51.678;6.074;2023-11-18T16:09:17;6.13;;;3.00;;
17618;SDS011;8928;51.678;6.074;2023-11-18T16:12:06;5.83;;;3.30;;
17618;SDS011;8928;51.678;6.074;2023-11-18T16:14:55;4.50;;;3.00;;
17618;SDS011;8928;51.678;6.074;2023-11-18T16:17:42;7.90;;;3.20;;
17618;SDS011;8928;51.678;6.074;2023-11-18T16:20:31;9.23;;;3.10;;
17618;SDS011;8928;51.678;6.074;2023-11-18T16:23:18;6.20;;;3.10;;
17618;SDS011;8928;51.678;6.074;2023-11-18T16:26:06;6.70;;;3.10;;
17618;SDS011;8928;51.678;6.074;2023-11-18T16:28:53;4.93;;;2.87;;
17618;SDS011;8928;51.678;6.074;2023-11-18T16:31:44;5.77;;;3.17;;
17618;SDS011;8928;51.678;6.074;2023-11-18T16:34:31;5.67;;;3.20;;
17618;SDS011;8928;51.678;6.074;2023-11-18T16:37:18;7.37;;;3.13;;
17618;SDS011;8928;51.678;6.074;2023-11-18T16:40:06;7.30;;;3.20;;
17618;SDS011;8928;51.678;6.074;2023-11-18T16:42:55;9.33;;;3.83;;
17618;SDS011;8928;51.678;6.074;2023-11-18T16:45:44;5.07;;;3.10;;
17618;SDS011;8928;51.678;6.074;2023-11-18T16:48:32;7.63;;;3.90;;
17618;SDS011;8928;51.678;6.074;2023-11-18T16:51:20;6.03;;;3.70;;